Nearby METAR Reports


KSYR - Syracuse, New York, USA
Distance from station: SE 5mi, 8km
Updated: Wed, 18-Oct-2017 5:54pm EDT
Clear
Clear
 Wind from SSW
Wind: SSW 3 mph , 6 km/h
Temperature: 66°F , 19°C
Dew Point: 46°F , 8°C
Humidity: 49%
Barometer: 30.19 inHg , 1022.4 hPa
Clouds: Clear
Visibility: 10 miles , 16 km
2017/10/18 21:54 KSYR 182154Z 20003KT 10SM CLR 19/08 A3019 RMK AO2 SLP219 T01890078 $
KFZY - Fulton, New York, USA
Distance from station: NW 17mi, 27km
Updated: Wed, 18-Oct-2017 5:54pm EDT

 
Barometer: 30.18 inHg , 1022 hPa
2017/10/18 21:54 KFZY 182154Z AUTO A3018 RMK AO2 SLPNO PWINO FZRANO $
 
KRME - Rome/Griffiss Af, New York, USA
Distance from station: E 39mi, 62km
Updated: Wed, 18-Oct-2017 5:53pm EDT
Clear
Clear
 Wind from N
Wind: N 3 mph , 6 km/h
Temperature: 66°F , 19°C
Dew Point: 50°F , 10°C
Humidity: 56%
Barometer: 30.21 inHg , 1023 hPa
Clouds: Clear
Visibility: 10 miles , 16 km
2017/10/18 21:53 KRME 182153Z 35003KT 10SM CLR 19/10 A3021 RMK AO2 SLP232 T01940100
KITH - Ithaca/Tompkins, New York, USA
Distance from station: SSW 51mi, 82km
Updated: Wed, 18-Oct-2017 5:56pm EDT
Clear
Clear
 Wind from calm
Wind: Calm
Temperature: 66°F , 19°C
Dew Point: 46°F , 8°C
Humidity: 49%
Barometer: 30.22 inHg , 1023.4 hPa
Clouds: Clear
Visibility: 10 miles , 16 km
2017/10/18 21:56 KITH 182156Z 00000KT 10SM CLR 19/08 A3022 RMK AO2 SLP232 T01940078
 
KART - Watertown, New York, USA
Distance from station: N 56mi, 91km
Updated: Wed, 18-Oct-2017 5:56pm EDT
Clear
Clear
 Wind from calm
Wind: Calm
Temperature: 61°F , 16°C
Dew Point: 52°F , 11°C
Humidity: 72%
Barometer: 30.17 inHg , 1021.7 hPa
Clouds: Clear
Visibility: 10 miles , 16 km
2017/10/18 21:56 KART 182156Z AUTO 00000KT 10SM CLR 16/11 A3017 RMK AO2 SLP216 T01560111
KPEO - Penn Yan, New York, USA
Distance from station: SW 58mi, 93km
Updated: Sun, 01-Oct-2017 9:02am EDT
NOT Current
Partly cloudy
Partly cloudy
 Wind from SW
Wind: SW 6 mph , 9 km/h
Temperature: 46°F , 8°C
Wind Chill: 43°F , 6°C
Dew Point: 43°F , 6°C
Humidity: 87%
Barometer: 30.44 inHg , 1030.8 hPa
Clouds: Partly cloudy
Visibility: 10 miles , 16 km
Cloud details: Partly cloudy 300 ft
2017/10/01 13:02 KPEO 011302Z AUTO 22005KT 10SM SCT003 08/06 A3044 RMK AO2 T00780056 $
 
KGTB - Fort Drum/Wheele, New York, USA
Distance from station: NNE 64mi, 102km
Updated: Wed, 18-Oct-2017 5:56pm EDT
Clear
Clear
 Wind from WSW
Wind: WSW 5 mph , 7 km/h
Temperature: 63°F , 17°C
Dew Point: 46°F , 8°C
Humidity: 56%
Barometer: 30.18 inHg , 1022 hPa
Clouds: Clear
Visibility: 8 miles , 13 km
2017/10/18 21:56 KGTB 182156Z AUTO 25004KT 8SM CLR 17/08 A3018 RMK AO2 SLP221 T01700084 CHINO RWY03 $
CWQP - Point Petre (mar, Ontario, Canada
Distance from station: NW 67mi, 107km
Updated: Wed, 18-Oct-2017 6:00pm EDT

 Wind from S
Wind: S 8 mph , 13 km/h
Temperature: 57°F , 14°C
Dew Point: 54°F , 12°C
Humidity: 88%
2017/10/18 22:00 CWQP 182200Z AUTO 18007KT 14/12 RMK AO1 SLP214 T01430121 56013
 
KBGM - Binghamton, New York, USA
Distance from station: S 67mi, 107km
Updated: Wed, 18-Oct-2017 5:53pm EDT
Clear
Clear
 Wind from SW
Wind: SW 5 mph , 7 km/h
Temperature: 63°F , 17°C
Dew Point: 43°F , 6°C
Humidity: 49%
Barometer: 30.23 inHg , 1023.7 hPa
Clouds: Clear
Visibility: 10 miles , 16 km
2017/10/18 21:53 KBGM 182153Z 22004KT 10SM CLR 17/06 A3023 RMK AO2 SLP238 T01720056
CYGK - Kingston Arpt (m, Ontario, Canada
Distance from station: NNW 75mi, 121km
Updated: Wed, 18-Oct-2017 6:00pm EDT
Clear
Clear
 Wind from SSW
Wind: SSW 9 mph , 15 km/h
Temperature: 59°F , 15°C
Dew Point: 54°F , 12°C
Humidity: 82%
Barometer: 30.16 inHg , 1021.3 hPa
Clouds: Clear
Visibility: 15 miles , 24 km
2017/10/18 22:00 CYGK 182200Z 20008KT 15SM SKC 15/12 A3016 RMK SLP215